GIA7075 WITT-OEMA
Flight info
| Callsign | GIA7075 |
|---|---|
| Flight time | N/A |
| Altitude | 34000 |
| Route | OTKUL DCT NIXUL P570 IBOTU/N0491F360 P570 GOLNI N569 UMILA L883 MEVLI/N0485F380 L883 SITOL DCT PUSON L883 KITUB Y511 ELONU |
| Aircraft | B77W/H-SDE1E2E3FGHIJ2J3J4J5M1RWXY/LB1D1 |
Departure
| Time | N/A |
|---|---|
| Airport | Sultan Iskandar Muda International Airport (WITT) |
Arrival
| Time | 2026-05-08 16:40 |
|---|---|
| Airport | Prince Mohammad Bin Abdulaziz Airport (OEMA) |
| Time | Latitude | Longitude | Altitude | Speed | Heading |
|---|---|---|---|---|---|
| 2026-05-08 16:01 | 23.43509 | 43.04606 | 33947 ft | 490 kts | 280° |
| 2026-05-08 16:01 | 23.45583 | 42.97571 | 33956 ft | 488 kts | 280° |
| 2026-05-08 16:02 | 23.47643 | 42.90577 | 33940 ft | 485 kts | 280° |
| 2026-05-08 16:02 | 23.49693 | 42.83605 | 33947 ft | 483 kts | 280° |
| 2026-05-08 16:03 | 23.51730 | 42.76662 | 33948 ft | 482 kts | 280° |
| 2026-05-08 16:03 | 23.53760 | 42.69761 | 33943 ft | 482 kts | 280° |
| 2026-05-08 16:04 | 23.55816 | 42.62801 | 33951 ft | 483 kts | 280° |
| 2026-05-08 16:04 | 23.57871 | 42.55832 | 33945 ft | 482 kts | 280° |
| 2026-05-08 16:05 | 23.59920 | 42.48870 | 33950 ft | 481 kts | 280° |
| 2026-05-08 16:05 | 23.61957 | 42.41929 | 33951 ft | 481 kts | 280° |
| 2026-05-08 16:06 | 23.63966 | 42.35071 | 33957 ft | 479 kts | 281° |
| 2026-05-08 16:06 | 23.65995 | 42.28132 | 33947 ft | 478 kts | 281° |
| 2026-05-08 16:07 | 23.67980 | 42.21260 | 33953 ft | 477 kts | 280° |
| 2026-05-08 16:07 | 23.69956 | 42.14380 | 33964 ft | 476 kts | 281° |
| 2026-05-08 16:08 | 23.71837 | 42.07833 | 33948 ft | 474 kts | 280° |
| 2026-05-08 16:08 | 23.73795 | 42.01013 | 33966 ft | 473 kts | 280° |
| 2026-05-08 16:09 | 23.75381 | 41.95501 | 33968 ft | 473 kts | 281° |
| 2026-05-08 16:09 | 23.77694 | 41.87560 | 33958 ft | 472 kts | 281° |
| 2026-05-08 16:10 | 23.79676 | 41.80737 | 33958 ft | 471 kts | 281° |
| 2026-05-08 16:10 | 23.81578 | 41.74156 | 33964 ft | 471 kts | 281° |
| 2026-05-08 16:11 | 23.83465 | 41.67584 | 33955 ft | 470 kts | 281° |
| 2026-05-08 16:11 | 23.85404 | 41.60823 | 33957 ft | 470 kts | 281° |
| 2026-05-08 16:12 | 23.87282 | 41.54262 | 33963 ft | 470 kts | 282° |
| 2026-05-08 16:12 | 23.89146 | 41.47728 | 33953 ft | 471 kts | 282° |
| 2026-05-08 16:13 | 23.91099 | 41.40874 | 33960 ft | 471 kts | 282° |
| 2026-05-08 16:13 | 23.93031 | 41.34082 | 33951 ft | 472 kts | 282° |
| 2026-05-08 16:14 | 23.94870 | 41.27590 | 33949 ft | 475 kts | 282° |
| 2026-05-08 16:14 | 23.96824 | 41.20688 | 33951 ft | 477 kts | 282° |
| 2026-05-08 16:15 | 23.98786 | 41.13746 | 33951 ft | 479 kts | 282° |
| 2026-05-08 16:15 | 24.00752 | 41.06781 | 33947 ft | 481 kts | 282° |
| 2026-05-08 16:16 | 24.02720 | 40.99793 | 33945 ft | 482 kts | 282° |
| 2026-05-08 16:16 | 24.03693 | 40.96343 | 33828 ft | 467 kts | 282° |
| 2026-05-08 16:16 | 24.04631 | 40.93025 | 33102 ft | 452 kts | 283° |
| 2026-05-08 16:17 | 24.05541 | 40.89783 | 32253 ft | 443 kts | 283° |
| 2026-05-08 16:17 | 24.06125 | 40.87697 | 31663 ft | 438 kts | 283° |
| 2026-05-08 16:17 | 24.07254 | 40.83651 | 30550 ft | 430 kts | 283° |
| 2026-05-08 16:17 | 24.08107 | 40.80592 | 29647 ft | 424 kts | 284° |
| 2026-05-08 16:18 | 24.08633 | 40.78704 | 29028 ft | 420 kts | 284° |
| 2026-05-08 16:18 | 24.09461 | 40.75736 | 28066 ft | 415 kts | 284° |
| 2026-05-08 16:18 | 24.10309 | 40.72689 | 27356 ft | 422 kts | 284° |
| 2026-05-08 16:18 | 24.11162 | 40.69624 | 27144 ft | 420 kts | 284° |
| 2026-05-08 16:19 | 24.12006 | 40.66594 | 27108 ft | 415 kts | 284° |
| 2026-05-08 16:19 | 24.12830 | 40.63640 | 26616 ft | 399 kts | 284° |
| 2026-05-08 16:19 | 24.13635 | 40.60748 | 25723 ft | 395 kts | 284° |
| 2026-05-08 16:19 | 24.14432 | 40.57876 | 24775 ft | 395 kts | 285° |
| 2026-05-08 16:20 | 24.15229 | 40.55000 | 23835 ft | 394 kts | 285° |
| 2026-05-08 16:20 | 24.16021 | 40.52141 | 22908 ft | 390 kts | 285° |
| 2026-05-08 16:20 | 24.16642 | 40.49297 | 22023 ft | 384 kts | 278° |
| 2026-05-08 16:20 | 24.17016 | 40.46439 | 21210 ft | 377 kts | 275° |
| 2026-05-08 16:21 | 24.17303 | 40.43611 | 20406 ft | 372 kts | 275° |
| 2026-05-08 16:21 | 24.17557 | 40.41028 | 19629 ft | 370 kts | 275° |
| 2026-05-08 16:21 | 24.17838 | 40.38280 | 18810 ft | 368 kts | 275° |
| 2026-05-08 16:21 | 24.18129 | 40.35587 | 18031 ft | 366 kts | 275° |
| 2026-05-08 16:22 | 24.18332 | 40.33775 | 17466 ft | 364 kts | 275° |
| 2026-05-08 16:22 | 24.18637 | 40.31114 | 16701 ft | 360 kts | 275° |
| 2026-05-08 16:22 | 24.18953 | 40.28407 | 15949 ft | 357 kts | 276° |
| 2026-05-08 16:22 | 24.19271 | 40.25697 | 15517 ft | 364 kts | 276° |
| 2026-05-08 16:23 | 24.19597 | 40.22928 | 15273 ft | 369 kts | 276° |
| 2026-05-08 16:23 | 24.20032 | 40.19250 | 15168 ft | 369 kts | 276° |
| 2026-05-08 16:23 | 24.20358 | 40.16487 | 15123 ft | 368 kts | 275° |
| 2026-05-08 16:23 | 24.20684 | 40.13721 | 15106 ft | 366 kts | 275° |
| 2026-05-08 16:24 | 24.20899 | 40.11886 | 15085 ft | 365 kts | 275° |
| 2026-05-08 16:24 | 24.21212 | 40.09217 | 15019 ft | 365 kts | 275° |
| 2026-05-08 16:24 | 24.21533 | 40.06466 | 14946 ft | 365 kts | 275° |
| 2026-05-08 16:24 | 24.21856 | 40.03708 | 14873 ft | 365 kts | 275° |
| 2026-05-08 16:25 | 24.22179 | 40.00952 | 14841 ft | 364 kts | 274° |
| 2026-05-08 16:25 | 24.22489 | 39.98300 | 14789 ft | 363 kts | 274° |
| 2026-05-08 16:25 | 24.22803 | 39.95593 | 14772 ft | 361 kts | 274° |
| 2026-05-08 16:25 | 24.23136 | 39.93241 | 14731 ft | 357 kts | 282° |
| 2026-05-08 16:26 | 24.24139 | 39.90846 | 14493 ft | 369 kts | 303° |
| 2026-05-08 16:26 | 24.25974 | 39.88901 | 14385 ft | 376 kts | 322° |
| 2026-05-08 16:26 | 24.28254 | 39.87620 | 14221 ft | 370 kts | 340° |
| 2026-05-08 16:26 | 24.30758 | 39.87006 | 13531 ft | 371 kts | 347° |
| 2026-05-08 16:27 | 24.33263 | 39.86541 | 13111 ft | 361 kts | 348° |
| 2026-05-08 16:27 | 24.35301 | 39.86166 | 13013 ft | 346 kts | 348° |
| 2026-05-08 16:27 | 24.37577 | 39.85731 | 12888 ft | 332 kts | 347° |
| 2026-05-08 16:27 | 24.39798 | 39.85285 | 12792 ft | 319 kts | 346° |
| 2026-05-08 16:28 | 24.41904 | 39.84851 | 12704 ft | 307 kts | 346° |
| 2026-05-08 16:28 | 24.43840 | 39.84447 | 12651 ft | 289 kts | 346° |
| 2026-05-08 16:28 | 24.45719 | 39.84054 | 12746 ft | 278 kts | 346° |
| 2026-05-08 16:28 | 24.47600 | 39.83652 | 12756 ft | 287 kts | 346° |
| 2026-05-08 16:29 | 24.49560 | 39.83226 | 12528 ft | 290 kts | 346° |
| 2026-05-08 16:29 | 24.51496 | 39.82809 | 12278 ft | 286 kts | 346° |
| 2026-05-08 16:29 | 24.53262 | 39.82428 | 12071 ft | 283 kts | 346° |
| 2026-05-08 16:29 | 24.54923 | 39.82071 | 11848 ft | 282 kts | 346° |
| 2026-05-08 16:30 | 24.56657 | 39.81699 | 11625 ft | 281 kts | 346° |
| 2026-05-08 16:30 | 24.58591 | 39.81286 | 11411 ft | 290 kts | 346° |
| 2026-05-08 16:30 | 24.60575 | 39.80865 | 11090 ft | 295 kts | 346° |
| 2026-05-08 16:30 | 24.62609 | 39.80434 | 10799 ft | 294 kts | 346° |
| 2026-05-08 16:31 | 24.64567 | 39.80019 | 10528 ft | 291 kts | 346° |
| 2026-05-08 16:31 | 24.66561 | 39.79597 | 10139 ft | 294 kts | 346° |
| 2026-05-08 16:31 | 24.68358 | 39.79216 | 9813 ft | 295 kts | 346° |
| 2026-05-08 16:31 | 24.70329 | 39.78798 | 9396 ft | 297 kts | 346° |
| 2026-05-08 16:32 | 24.72357 | 39.78367 | 8984 ft | 299 kts | 345° |
| 2026-05-08 16:32 | 24.74411 | 39.77930 | 8588 ft | 301 kts | 345° |
| 2026-05-08 16:32 | 24.76447 | 39.77499 | 8202 ft | 302 kts | 346° |
| 2026-05-08 16:32 | 24.78499 | 39.77055 | 7799 ft | 301 kts | 343° |
| 2026-05-08 16:33 | 24.80271 | 39.76219 | 7314 ft | 280 kts | 317° |
| 2026-05-08 16:33 | 24.81441 | 39.74681 | 6799 ft | 262 kts | 290° |
| 2026-05-08 16:33 | 24.81757 | 39.72816 | 6302 ft | 248 kts | 262° |
| 2026-05-08 16:33 | 24.81340 | 39.71086 | 5803 ft | 239 kts | 246° |
| 2026-05-08 16:34 | 24.80546 | 39.69549 | 5390 ft | 227 kts | 233° |
| 2026-05-08 16:34 | 24.79441 | 39.68354 | 5071 ft | 221 kts | 217° |
| 2026-05-08 16:34 | 24.78471 | 39.67776 | 5040 ft | 228 kts | 206° |
| 2026-05-08 16:34 | 24.77053 | 39.67320 | 5003 ft | 230 kts | 194° |
| 2026-05-08 16:35 | 24.75506 | 39.67128 | 5020 ft | 233 kts | 186° |
| 2026-05-08 16:35 | 24.73937 | 39.67137 | 5020 ft | 237 kts | 181° |
| 2026-05-08 16:35 | 24.72359 | 39.67264 | 4904 ft | 225 kts | 178° |
| 2026-05-08 16:35 | 24.70884 | 39.67503 | 4631 ft | 212 kts | 174° |
| 2026-05-08 16:36 | 24.69710 | 39.67751 | 4422 ft | 199 kts | 174° |
| 2026-05-08 16:36 | 24.68665 | 39.67978 | 4264 ft | 196 kts | 174° |
| 2026-05-08 16:36 | 24.67398 | 39.68250 | 4020 ft | 193 kts | 174° |
| 2026-05-08 16:36 | 24.66099 | 39.68530 | 3764 ft | 186 kts | 174° |
| 2026-05-08 16:37 | 24.64892 | 39.68789 | 3560 ft | 170 kts | 175° |
| 2026-05-08 16:37 | 24.63955 | 39.68986 | 3379 ft | 162 kts | 176° |
| 2026-05-08 16:37 | 24.62995 | 39.69189 | 3185 ft | 156 kts | 174° |
| 2026-05-08 16:37 | 24.62207 | 39.69356 | 3059 ft | 160 kts | 176° |
| 2026-05-08 16:38 | 24.61144 | 39.69583 | 2856 ft | 164 kts | 176° |
| 2026-05-08 16:38 | 24.60115 | 39.69805 | 2678 ft | 165 kts | 171° |
| 2026-05-08 16:38 | 24.59123 | 39.70039 | 2465 ft | 169 kts | 172° |
| 2026-05-08 16:38 | 24.58064 | 39.70255 | 2269 ft | 171 kts | 172° |
| 2026-05-08 16:39 | 24.57028 | 39.70485 | 2156 ft | 168 kts | 172° |
| 2026-05-08 16:39 | 24.56112 | 39.70713 | 2121 ft | 143 kts | 173° |
| 2026-05-08 16:39 | 24.55311 | 39.70816 | 2114 ft | 116 kts | 167° |
| 2026-05-08 16:39 | 24.54891 | 39.70916 | 2118 ft | 50 kts | 168° |
| 2026-05-08 16:40 | 24.54577 | 39.70986 | 2117 ft | 45 kts | 168° |
| 2026-05-08 16:40 | 24.54292 | 39.71048 | 2117 ft | 37 kts | 169° |
| 2026-05-08 16:40 | 24.54047 | 39.71101 | 2115 ft | 35 kts | 168° |
| 2026-05-08 16:40 | 24.53913 | 39.71207 | 2115 ft | 21 kts | 87° |
| 2026-05-08 16:41 | 24.53999 | 39.71295 | 2112 ft | 17 kts | 5° |
| 2026-05-08 16:41 | 24.54114 | 39.71274 | 2112 ft | 17 kts | 347° |
| 2026-05-08 16:41 | 24.54222 | 39.71248 | 2112 ft | 16 kts | 347° |
| 2026-05-08 16:42 | 24.54450 | 39.71196 | 2112 ft | 17 kts | 348° |
| 2026-05-08 16:42 | 24.54569 | 39.71170 | 2112 ft | 17 kts | 348° |
| 2026-05-08 16:42 | 24.54686 | 39.71145 | 2112 ft | 17 kts | 350° |
| 2026-05-08 16:42 | 24.54792 | 39.71155 | 2111 ft | 17 kts | 29° |
| 2026-05-08 16:43 | 24.54855 | 39.71252 | 2110 ft | 16 kts | 64° |
| 2026-05-08 16:43 | 24.54870 | 39.71284 | 2110 ft | 1 kts | 66° |
| 2026-05-08 16:43 | 24.54877 | 39.71301 | 2110 ft | 4 kts | 65° |
| 2026-05-08 16:43 | 24.54886 | 39.71331 | 2110 ft | 4 kts | 75° |
| 2026-05-08 16:44 | 24.54892 | 39.71357 | 2109 ft | 0 kts | 77° |
| 2026-05-08 16:44 | 24.54893 | 39.71360 | 2109 ft | 0 kts | 77° |
| 2026-05-08 16:44 | 24.54894 | 39.71365 | 2109 ft | 2 kts | 78° |
| 2026-05-08 16:45 | 24.54896 | 39.71375 | 2109 ft | 0 kts | 78° |